首页
METAR-TAF:

METAR-TAF

机场 :

贝伦, 帕拉, 巴西

纬度: 01-23S, 经度: 048-29W, 海拔: 16米

当前天气观测

该预报发布于57分钟前的00:00 UTC
风速10节,风向
温度 24°C
湿度 94%
气压 1015 hPa
能见度10公里或以上
散云层高于1500英尺
少量云层高于2000英尺, 积雨云.
多云层高于10000英尺
雷暴

METAR: SBBE 210000Z 10010KT 9999 TS SCT015 FEW020CB BKN100 24/23 Q1015 RERA

时间: 21:57 (00:57 UTC)

预报

该预报发布于2小时和57分钟前的22:00 UTC
预报有效从21日的 00点(UTC)到 21日的 24点(UTC)
风速5节,风向东北
能见度10公里或以上
少量云层高于3000英尺
成为
从 21日的 02点(UTC)到 21日的 04点(UTC)
能见度10公里或以上
1500米以下无云,无积雨云
成为
从 21日的 11点(UTC)到 21日的 13点(UTC)
能见度10公里或以上
少量云层高于1500英尺
成为
从 21日的 15点(UTC)到 21日的 17点(UTC)
风速10节,风向
多云层高于3000英尺

TAF: SBBE 202200Z 2100/2124 05005KT 9999 FEW030 TN24/2107Z TX32/2116Z BECMG 2102/2104 CAVOK BECMG 2111/2113 9999 FEW015 BECMG 2115/2117 08010KT BKN030 RMK PEN

超过4000个机场的气象观测和天气预报(METAR&TAF报告)。

可查询的气象台以黄色和红色小点在地图上表示。

将鼠标移到小点上方,可查看气象台名称。

然后点击查看天气观测和预报。

如需切换地图:点击带黑十字的绿色按钮放大地图;点击带横线的绿色按钮缩小地图;或者点击绿色箭头查看邻近地区的地图。


METAR-TAF: